createdAt,value
2023-03-06T00:01:01.723Z,4.03
2023-03-06T00:03:29.104Z,2.50
2023-03-06T00:05:58.758Z,3.83
2023-03-06T00:08:28.481Z,5.20
2023-03-06T00:10:56.670Z,3.17
2023-03-06T00:13:29.958Z,5.07
2023-03-06T00:16:01.237Z,3.67
2023-03-06T00:18:28.449Z,4.40
2023-03-06T00:20:55.526Z,4.13
2023-03-06T00:23:22.702Z,6.07
2023-03-06T00:25:49.730Z,3.70
2023-03-06T00:28:17.805Z,3.57
2023-03-06T00:30:46.470Z,3.80
2023-03-06T00:33:13.626Z,6.93
2023-03-06T00:35:41.708Z,4.80
2023-03-06T00:38:12.383Z,5.50
2023-03-06T00:40:39.609Z,3.97
2023-03-06T00:43:06.811Z,4.80
2023-03-06T00:45:34.345Z,3.40
2023-03-06T00:48:01.564Z,4.57
2023-03-06T00:50:28.887Z,5.30
2023-03-06T00:52:56.477Z,4.83
2023-03-06T00:55:25.135Z,4.60
2023-03-06T00:57:52.354Z,5.87
2023-03-06T01:00:20.406Z,4.23
2023-03-06T01:02:49.735Z,5.20
2023-03-06T01:05:17.054Z,4.23
2023-03-06T01:07:44.175Z,4.73
2023-03-06T01:10:12.221Z,5.47
2023-03-06T01:12:39.351Z,4.40
2023-03-06T01:15:08.080Z,4.30
2023-03-06T01:17:35.193Z,4.73
2023-03-06T01:20:03.690Z,5.90
2023-03-06T01:22:31.065Z,9.13
2023-03-06T01:24:59.687Z,8.00
2023-03-06T01:27:26.766Z,4.67
2023-03-06T01:29:53.906Z,8.90
2023-03-06T01:32:22.090Z,5.70
2023-03-06T01:34:49.735Z,7.07
2023-03-06T01:37:16.945Z,8.50
2023-03-06T01:39:43.991Z,4.50
2023-03-06T01:42:11.203Z,8.07
2023-03-06T01:44:58.510Z,5.77
2023-03-06T01:47:25.764Z,9.63
2023-03-06T01:49:53.611Z,8.50
2023-03-06T01:52:27.297Z,11.50
2023-03-06T01:54:59.766Z,5.37
2023-03-06T01:57:41.491Z,6.40
2023-03-06T02:00:11.847Z,5.33
2023-03-06T02:02:48.778Z,6.90
2023-03-06T02:05:16.260Z,7.07
2023-03-06T02:07:44.719Z,7.70
2023-03-06T02:10:15.955Z,4.17
2023-03-06T02:12:44.795Z,7.47
2023-03-06T02:15:19.301Z,11.43
2023-03-06T02:17:48.659Z,8.43
2023-03-06T02:20:44.132Z,8.10
2023-03-06T02:23:38.368Z,6.97
2023-03-06T02:26:07.473Z,6.10
2023-03-06T02:28:34.925Z,7.70
2023-03-06T02:31:02.141Z,9.13
2023-03-06T02:33:30.051Z,9.00
2023-03-06T02:36:05.235Z,9.67
2023-03-06T02:38:46.991Z,4.60
2023-03-06T02:41:14.681Z,7.60
2023-03-06T02:43:45.775Z,5.70
2023-03-06T02:46:13.892Z,8.80
2023-03-06T02:48:41.041Z,7.90
2023-03-06T02:51:08.138Z,7.90
2023-03-06T02:53:35.434Z,8.53
2023-03-06T02:56:02.975Z,8.30
2023-03-06T02:58:30.272Z,10.50
2023-03-06T03:00:57.401Z,8.73
2023-03-06T03:03:24.943Z,7.40
2023-03-06T03:05:53.270Z,9.27
2023-03-06T03:08:24.474Z,8.40
2023-03-06T03:10:56.895Z,8.80
2023-03-06T03:13:25.418Z,10.00
2023-03-06T03:16:09.091Z,7.10
2023-03-06T03:18:36.672Z,6.93
2023-03-06T03:21:14.262Z,7.93
2023-03-06T03:23:41.687Z,10.53
2023-03-06T03:26:22.025Z,9.73
2023-03-06T03:29:05.178Z,6.70
2023-03-06T03:31:33.050Z,7.33
2023-03-06T03:34:02.459Z,9.80
2023-03-06T03:36:32.934Z,11.93
2023-03-06T03:39:00.344Z,7.70
2023-03-06T03:41:27.811Z,10.07
2023-03-06T03:43:55.015Z,9.67
2023-03-06T03:46:23.193Z,7.90
2023-03-06T03:48:52.766Z,11.70
2023-03-06T03:51:20.003Z,10.13
2023-03-06T03:53:51.372Z,9.93
2023-03-06T03:56:21.949Z,8.80
2023-03-06T03:59:00.865Z,10.20
2023-03-06T04:01:33.470Z,6.57
2023-03-06T04:04:00.825Z,13.93
2023-03-06T04:06:28.106Z,7.37
2023-03-06T04:08:55.686Z,6.53
2023-03-06T04:11:24.150Z,6.03
2023-03-06T04:13:51.393Z,9.50
2023-03-06T04:16:18.961Z,6.97
2023-03-06T04:18:46.052Z,6.90
2023-03-06T04:21:13.434Z,11.03
2023-03-06T04:23:40.805Z,13.00
2023-03-06T04:26:08.214Z,7.50
2023-03-06T04:28:35.421Z,11.47
2023-03-06T04:31:02.638Z,7.30
2023-03-06T04:33:31.378Z,9.50
2023-03-06T04:35:59.016Z,13.43
2023-03-06T04:38:29.670Z,11.23
2023-03-06T04:40:56.786Z,8.87
2023-03-06T04:43:24.034Z,8.23
2023-03-06T04:45:51.182Z,10.63
2023-03-06T04:48:18.916Z,9.23
2023-03-06T04:50:46.434Z,13.17
2023-03-06T04:53:14.613Z,11.27
2023-03-06T04:55:41.700Z,6.80
2023-03-06T04:58:11.157Z,9.80
2023-03-06T05:00:38.258Z,14.00
2023-03-06T05:03:05.400Z,12.93
2023-03-06T05:05:32.455Z,10.50
2023-03-06T05:07:59.538Z,11.37
2023-03-06T05:10:26.645Z,8.33
2023-03-06T05:12:53.677Z,10.40
2023-03-06T05:15:20.856Z,13.20
2023-03-06T05:17:47.924Z,9.83
2023-03-06T05:20:17.631Z,12.43
2023-03-06T05:22:45.076Z,10.87
2023-03-06T05:25:12.359Z,9.00
2023-03-06T05:27:40.082Z,10.40
2023-03-06T05:30:10.130Z,9.70
2023-03-06T05:32:37.437Z,9.20
2023-03-06T05:35:06.179Z,9.90
2023-03-06T05:37:33.800Z,10.23
2023-03-06T05:40:01.245Z,10.53
2023-03-06T05:42:31.129Z,11.33
2023-03-06T05:44:58.183Z,12.00
2023-03-06T05:47:25.247Z,10.20
2023-03-06T05:49:52.343Z,13.83
2023-03-06T05:52:19.462Z,10.63
2023-03-06T05:54:51.892Z,9.53
2023-03-06T05:57:24.007Z,9.50
2023-03-06T05:59:51.979Z,11.50
2023-03-06T06:02:19.791Z,14.40
2023-03-06T06:04:46.914Z,12.10
2023-03-06T06:07:16.287Z,10.27
2023-03-06T06:09:45.611Z,12.97
2023-03-06T06:12:13.553Z,9.90
2023-03-06T06:14:40.662Z,9.13
2023-03-06T06:17:08.003Z,13.40
2023-03-06T06:19:35.276Z,11.50
2023-03-06T06:22:05.416Z,12.50
2023-03-06T06:24:32.930Z,10.70
2023-03-06T06:27:03.653Z,12.03
2023-03-06T06:29:32.178Z,16.00
2023-03-06T06:32:00.328Z,13.73
2023-03-06T06:34:28.576Z,12.33
2023-03-06T06:36:55.911Z,13.83
2023-03-06T06:39:24.641Z,10.07
2023-03-06T06:42:06.355Z,15.20
2023-03-06T06:44:40.059Z,10.33
2023-03-06T06:47:25.074Z,15.50
2023-03-06T06:49:55.241Z,10.30
2023-03-06T06:52:24.314Z,12.67
2023-03-06T06:54:52.474Z,11.10
2023-03-06T06:57:19.668Z,11.80
2023-03-06T06:59:46.702Z,9.60
2023-03-06T07:02:16.001Z,13.83
2023-03-06T07:05:02.048Z,11.20
2023-03-06T07:07:30.597Z,11.67
2023-03-06T07:09:57.720Z,11.90
2023-03-06T07:12:24.827Z,11.77
2023-03-06T07:14:52.010Z,11.47
2023-03-06T07:17:19.047Z,10.03
2023-03-06T07:19:46.185Z,12.47
2023-03-06T07:22:13.586Z,12.07
2023-03-06T07:24:40.692Z,13.13
2023-03-06T07:27:07.756Z,10.83
2023-03-06T07:29:34.875Z,12.00
2023-03-06T07:32:02.294Z,21.30
2023-03-06T07:34:29.488Z,16.33
2023-03-06T07:36:56.554Z,12.33
2023-03-06T07:39:23.667Z,13.40
2023-03-06T07:41:54.511Z,16.17
2023-03-06T07:44:23.770Z,11.90
2023-03-06T07:46:50.894Z,16.33
2023-03-06T07:49:18.246Z,11.40
2023-03-06T07:51:45.347Z,12.27
2023-03-06T07:54:12.472Z,12.30
2023-03-06T07:56:39.530Z,14.77
2023-03-06T07:59:06.662Z,14.57
2023-03-06T08:01:33.909Z,13.10
2023-03-06T08:04:02.038Z,13.80
2023-03-06T08:06:29.232Z,14.53
2023-03-06T08:08:57.273Z,12.50
2023-03-06T08:11:27.778Z,12.33
2023-03-06T08:13:56.234Z,11.63
2023-03-06T08:16:29.752Z,9.87
2023-03-06T08:18:58.131Z,11.20
2023-03-06T08:21:28.100Z,10.70
2023-03-06T08:23:55.389Z,12.07
2023-03-06T08:26:31.530Z,12.93
2023-03-06T08:29:01.067Z,8.93
2023-03-06T08:31:35.394Z,11.70
2023-03-06T08:34:06.774Z,13.60
2023-03-06T08:36:33.965Z,18.37
2023-03-06T08:39:01.623Z,12.20
2023-03-06T08:41:29.295Z,12.23
2023-03-06T08:43:57.012Z,11.40
2023-03-06T08:46:28.151Z,18.07
2023-03-06T08:48:55.799Z,15.00
2023-03-06T08:51:23.965Z,15.83
2023-03-06T08:53:52.307Z,15.80
2023-03-06T08:56:25.482Z,13.90
2023-03-06T08:58:53.388Z,12.07
2023-03-06T09:01:24.807Z,18.63
2023-03-06T09:03:55.450Z,13.37
2023-03-06T09:06:24.359Z,13.70
2023-03-06T09:08:55.322Z,12.50
2023-03-06T09:11:25.636Z,16.30
2023-03-06T09:13:53.549Z,13.03
2023-03-06T09:16:20.698Z,13.17
2023-03-06T09:18:50.401Z,16.07
2023-03-06T09:21:17.531Z,13.00
2023-03-06T09:23:45.141Z,14.60
2023-03-06T09:26:12.913Z,12.70
2023-03-06T09:28:41.006Z,14.60
2023-03-06T09:31:15.785Z,12.57
2023-03-06T09:33:43.402Z,12.70
2023-03-06T09:36:23.882Z,15.63
2023-03-06T09:38:51.259Z,14.80
2023-03-06T09:41:27.619Z,15.17
2023-03-06T09:44:04.980Z,15.80
2023-03-06T09:46:43.171Z,14.67
2023-03-06T09:49:29.266Z,17.40
2023-03-06T09:52:26.063Z,14.60
2023-03-06T09:55:10.291Z,15.73
2023-03-06T09:58:07.135Z,14.70
2023-03-06T10:00:41.869Z,13.17
2023-03-06T10:03:29.798Z,13.67
2023-03-06T10:06:03.478Z,14.80
2023-03-06T10:08:58.585Z,16.30
2023-03-06T10:11:43.858Z,14.77
2023-03-06T10:14:22.218Z,14.83
2023-03-06T10:16:49.901Z,15.13
2023-03-06T10:19:20.348Z,13.47
2023-03-06T10:21:56.353Z,14.30
2023-03-06T10:24:26.573Z,16.47
2023-03-06T10:27:37.475Z,14.97
2023-03-06T10:30:44.026Z,18.17
2023-03-06T10:33:41.215Z,18.73
2023-03-06T10:36:15.911Z,20.03
2023-03-06T10:38:45.259Z,19.57
2023-03-06T10:41:12.559Z,14.80
2023-03-06T10:44:04.908Z,18.07
2023-03-06T10:46:37.542Z,18.43
2023-03-06T10:49:11.401Z,15.50
2023-03-06T10:51:38.524Z,13.70
2023-03-06T10:54:14.683Z,14.70
2023-03-06T10:56:44.618Z,19.13
2023-03-06T10:59:20.415Z,18.33
2023-03-06T11:02:18.314Z,16.00
2023-03-06T11:04:52.986Z,16.40
2023-03-06T11:07:22.198Z,23.20
2023-03-06T11:09:58.551Z,19.23
2023-03-06T11:12:34.798Z,18.80
2023-03-06T11:15:18.451Z,19.17
2023-03-06T11:17:55.771Z,15.70
2023-03-06T11:20:33.586Z,16.63
2023-03-06T11:23:29.393Z,15.00
2023-03-06T11:26:36.754Z,17.80
2023-03-06T11:29:38.701Z,20.50
2023-03-06T11:32:21.626Z,17.73
2023-03-06T11:34:56.465Z,19.33
2023-03-06T11:37:32.811Z,22.03
2023-03-06T11:40:13.766Z,18.27
2023-03-06T11:42:56.314Z,21.93
2023-03-06T11:45:45.572Z,18.83
2023-03-06T11:48:16.589Z,17.87
2023-03-06T11:50:53.366Z,17.80
2023-03-06T11:53:32.601Z,16.67
2023-03-06T11:56:29.472Z,16.87
2023-03-06T11:59:19.154Z,21.50
2023-03-06T12:02:18.738Z,20.90
2023-03-06T12:05:07.601Z,21.60
2023-03-06T12:07:59.428Z,18.23
2023-03-06T12:10:51.525Z,15.90
2023-03-06T12:13:46.791Z,20.67
2023-03-06T12:16:38.640Z,19.20
2023-03-06T12:19:18.297Z,21.90
2023-03-06T12:22:06.524Z,19.57
2023-03-06T12:25:27.787Z,18.90
2023-03-06T12:28:12.798Z,19.00
2023-03-06T12:31:02.527Z,17.10
2023-03-06T12:33:54.090Z,18.37
2023-03-06T12:36:56.718Z,18.90
2023-03-06T12:39:24.101Z,20.47
2023-03-06T12:42:23.241Z,18.40
2023-03-06T12:45:17.190Z,16.97
2023-03-06T12:47:48.135Z,13.87
2023-03-06T12:50:31.736Z,17.83
2023-03-06T12:53:04.693Z,13.63
2023-03-06T12:55:47.906Z,17.73
2023-03-06T12:58:30.372Z,14.57
2023-03-06T13:01:07.361Z,15.53
2023-03-06T13:04:07.822Z,16.80
2023-03-06T13:06:54.625Z,19.00
2023-03-06T13:10:01.556Z,19.93
2023-03-06T13:12:56.037Z,22.40
2023-03-06T13:16:04.246Z,20.70
2023-03-06T13:18:34.132Z,19.90
2023-03-06T13:21:01.704Z,25.40
2023-03-06T13:23:38.344Z,22.57
2023-03-06T13:26:25.071Z,20.50
2023-03-06T13:28:55.166Z,19.70
2023-03-06T13:31:34.380Z,19.33
2023-03-06T13:34:26.399Z,20.20
2023-03-06T13:36:53.444Z,19.63
2023-03-06T13:39:20.572Z,21.67
2023-03-06T13:41:57.316Z,21.70
2023-03-06T13:44:24.518Z,23.70
2023-03-06T13:47:06.737Z,21.70
2023-03-06T13:49:35.356Z,20.03
2023-03-06T13:52:26.781Z,18.97
2023-03-06T13:55:48.644Z,18.60
2023-03-06T13:59:06.889Z,18.80
2023-03-06T14:01:56.800Z,15.00
2023-03-06T14:04:34.415Z,16.10
2023-03-06T14:07:07.219Z,20.50
2023-03-06T14:09:45.872Z,16.30
2023-03-06T14:12:37.252Z,15.70
2023-03-06T14:15:17.137Z,14.00
2023-03-06T14:17:54.822Z,16.20
2023-03-06T14:20:28.253Z,16.77
2023-03-06T14:23:29.089Z,15.50
2023-03-06T14:26:01.960Z,17.30
2023-03-06T14:28:31.877Z,16.80
2023-03-06T14:31:01.456Z,16.37
2023-03-06T14:34:05.401Z,17.37
2023-03-06T14:36:52.813Z,16.40
2023-03-06T14:39:41.955Z,15.73
2023-03-06T14:42:25.836Z,15.67
2023-03-06T14:45:19.919Z,12.63
2023-03-06T14:47:52.077Z,13.27
2023-03-06T14:50:30.430Z,16.40
2023-03-06T14:53:04.291Z,13.47
2023-03-06T14:55:35.662Z,14.70
2023-03-06T14:58:17.454Z,13.50
2023-03-06T15:00:49.552Z,13.30
2023-03-06T15:03:33.728Z,12.97
2023-03-06T15:06:01.315Z,10.80
2023-03-06T15:08:32.223Z,11.30
2023-03-06T15:11:03.847Z,12.23
2023-03-06T15:13:33.215Z,12.83
2023-03-06T15:16:14.877Z,8.77
2023-03-06T15:19:02.562Z,10.13
2023-03-06T15:21:36.675Z,10.00
2023-03-06T15:24:32.545Z,8.50
2023-03-06T15:27:06.761Z,10.20
2023-03-06T15:29:38.124Z,15.13
2023-03-06T15:32:28.448Z,10.00
2023-03-06T15:35:32.805Z,10.67
2023-03-06T15:38:00.603Z,10.57
2023-03-06T15:40:31.176Z,10.87
2023-03-06T15:42:59.447Z,14.90
2023-03-06T15:45:29.441Z,11.70
2023-03-06T15:47:56.751Z,10.80
2023-03-06T15:50:26.952Z,12.43
2023-03-06T15:52:54.390Z,9.93
2023-03-06T15:55:26.205Z,11.60
2023-03-06T15:58:02.216Z,10.07
2023-03-06T16:00:40.074Z,13.90
2023-03-06T16:03:10.411Z,12.93
2023-03-06T16:05:37.778Z,12.83
2023-03-06T16:08:06.166Z,15.20
2023-03-06T16:10:44.722Z,15.83
2023-03-06T16:13:18.792Z,16.83
2023-03-06T16:15:49.450Z,11.97
2023-03-06T16:18:17.779Z,17.60
2023-03-06T16:20:45.149Z,13.27
2023-03-06T16:23:12.578Z,12.13
2023-03-06T16:25:43.148Z,11.30
2023-03-06T16:28:15.634Z,11.70
2023-03-06T16:30:44.607Z,10.83
2023-03-06T16:33:13.381Z,13.37
2023-03-06T16:35:41.287Z,10.77
2023-03-06T16:38:10.133Z,9.13
2023-03-06T16:40:41.295Z,12.30
2023-03-06T16:43:10.755Z,17.63
2023-03-06T16:45:40.510Z,16.67
2023-03-06T16:48:14.118Z,15.43
2023-03-06T16:50:41.603Z,12.43
2023-03-06T16:53:09.352Z,13.93
2023-03-06T16:55:36.713Z,16.93
2023-03-06T16:58:04.592Z,16.27
2023-03-06T17:00:33.395Z,12.37
2023-03-06T17:03:02.046Z,17.07
2023-03-06T17:05:33.204Z,17.77
2023-03-06T17:08:00.356Z,10.30
2023-03-06T17:10:27.529Z,14.30
2023-03-06T17:12:55.860Z,10.07
2023-03-06T17:15:23.752Z,9.10
2023-03-06T17:17:51.749Z,12.53
2023-03-06T17:20:19.913Z,12.37
2023-03-06T17:22:46.949Z,10.80
2023-03-06T17:25:14.255Z,13.17
2023-03-06T17:27:41.323Z,11.37
2023-03-06T17:30:09.936Z,11.07
2023-03-06T17:32:40.020Z,10.40
2023-03-06T17:35:09.637Z,11.83
2023-03-06T17:37:36.770Z,12.30
2023-03-06T17:40:07.820Z,11.80
2023-03-06T17:42:35.490Z,12.10
2023-03-06T17:45:02.781Z,14.97
2023-03-06T17:47:30.152Z,11.80
2023-03-06T17:49:57.228Z,12.33
2023-03-06T17:52:24.438Z,13.50
2023-03-06T17:54:51.649Z,11.93
2023-03-06T17:57:18.985Z,15.23
2023-03-06T17:59:48.563Z,11.67
2023-03-06T18:02:15.906Z,12.43
2023-03-06T18:04:43.051Z,12.70
2023-03-06T18:07:10.324Z,13.13
2023-03-06T18:09:37.886Z,14.50
2023-03-06T18:12:05.283Z,11.53
2023-03-06T18:14:32.504Z,11.57
2023-03-06T18:16:59.698Z,11.90
2023-03-06T18:19:26.898Z,11.30
2023-03-06T18:21:54.040Z,15.57
2023-03-06T18:24:21.414Z,13.60
2023-03-06T18:26:48.522Z,12.03
2023-03-06T18:29:16.499Z,13.37
2023-03-06T18:31:43.833Z,14.27
2023-03-06T18:34:14.557Z,11.97
2023-03-06T18:36:47.172Z,12.73
2023-03-06T18:39:15.894Z,11.50
2023-03-06T18:41:43.066Z,12.60
2023-03-06T18:44:17.503Z,13.33
2023-03-06T18:46:45.109Z,13.10
2023-03-06T18:49:13.344Z,11.00
2023-03-06T18:51:40.998Z,13.43
2023-03-06T18:54:08.621Z,15.13
2023-03-06T18:56:35.921Z,17.17
2023-03-06T18:59:06.611Z,16.10
2023-03-06T19:01:34.306Z,12.80
2023-03-06T19:04:03.838Z,13.27
2023-03-06T19:06:31.678Z,13.60
2023-03-06T19:08:58.990Z,19.03
2023-03-06T19:11:26.877Z,15.67
2023-03-06T19:13:54.558Z,16.40
2023-03-06T19:16:27.929Z,17.93
2023-03-06T19:18:55.794Z,13.73
2023-03-06T19:21:26.573Z,13.23
2023-03-06T19:23:54.175Z,15.60
2023-03-06T19:26:21.883Z,16.63
2023-03-06T19:28:49.356Z,17.33
2023-03-06T19:31:27.331Z,13.80
2023-03-06T19:33:56.775Z,12.53
2023-03-06T19:36:28.666Z,15.00
2023-03-06T19:39:01.572Z,16.10
2023-03-06T19:41:29.027Z,15.00
2023-03-06T19:44:03.199Z,15.60
2023-03-06T19:46:31.744Z,15.37
2023-03-06T19:49:03.356Z,13.00
2023-03-06T19:51:30.685Z,14.80
2023-03-06T19:53:58.206Z,14.20
2023-03-06T19:56:28.917Z,14.40
2023-03-06T19:58:56.691Z,15.00
2023-03-06T20:01:27.115Z,14.23
2023-03-06T20:03:59.410Z,12.80
2023-03-06T20:06:31.376Z,12.47
2023-03-06T20:08:58.453Z,17.63
2023-03-06T20:11:29.979Z,14.83
2023-03-06T20:13:59.403Z,14.70
2023-03-06T20:16:28.609Z,14.30
2023-03-06T20:18:58.921Z,15.33
2023-03-06T20:21:28.435Z,16.43
2023-03-06T20:23:58.230Z,17.73
2023-03-06T20:26:28.355Z,15.07
2023-03-06T20:28:56.164Z,18.53
2023-03-06T20:31:27.794Z,16.00
2023-03-06T20:33:58.386Z,14.33
2023-03-06T20:36:32.108Z,19.77
2023-03-06T20:39:01.228Z,16.93
2023-03-06T20:41:30.330Z,15.10
2023-03-06T20:44:00.138Z,18.00
2023-03-06T20:46:28.507Z,15.40
2023-03-06T20:48:56.372Z,15.80
2023-03-06T20:51:27.887Z,17.30
2023-03-06T20:53:56.049Z,18.83
2023-03-06T20:56:27.114Z,14.47
2023-03-06T20:58:54.518Z,17.70
2023-03-06T21:01:34.477Z,19.60
2023-03-06T21:04:04.543Z,15.10
2023-03-06T21:06:32.435Z,16.07
2023-03-06T21:09:01.217Z,20.60
2023-03-06T21:11:28.904Z,17.63
2023-03-06T21:13:56.404Z,18.87
2023-03-06T21:16:25.930Z,17.90
2023-03-06T21:18:55.687Z,17.90
2023-03-06T21:21:28.714Z,19.63
2023-03-06T21:23:56.030Z,23.23
2023-03-06T21:26:27.167Z,20.73
2023-03-06T21:28:54.746Z,20.50
2023-03-06T21:31:22.539Z,20.80
2023-03-06T21:33:50.462Z,16.83
2023-03-06T21:36:20.514Z,19.43
2023-03-06T21:38:49.223Z,17.70
2023-03-06T21:41:24.233Z,19.10
2023-03-06T21:44:00.051Z,18.70
2023-03-06T21:46:28.544Z,17.83
2023-03-06T21:48:56.580Z,25.20
2023-03-06T21:51:25.578Z,17.40
2023-03-06T21:53:54.683Z,21.83
2023-03-06T21:56:25.508Z,21.83
2023-03-06T21:58:53.060Z,18.37
2023-03-06T22:01:27.518Z,20.17
2023-03-06T22:03:55.334Z,20.90
2023-03-06T22:06:25.882Z,18.40
2023-03-06T22:08:55.962Z,22.20
2023-03-06T22:11:25.881Z,20.53
2023-03-06T22:13:53.406Z,21.60
2023-03-06T22:16:20.943Z,23.13
2023-03-06T22:18:50.774Z,19.90
2023-03-06T22:21:21.086Z,17.33
2023-03-06T22:23:54.040Z,20.93
2023-03-06T22:26:21.269Z,21.33
2023-03-06T22:28:48.559Z,22.03
2023-03-06T22:31:25.504Z,22.67
2023-03-06T22:33:54.764Z,19.77
2023-03-06T22:36:23.324Z,17.77
2023-03-06T22:38:55.827Z,20.37
2023-03-06T22:41:25.726Z,21.47
2023-03-06T22:43:57.514Z,21.97
2023-03-06T22:46:26.031Z,20.73
2023-03-06T22:48:55.978Z,21.03
2023-03-06T22:51:23.514Z,19.43
2023-03-06T22:53:50.728Z,20.80
2023-03-06T22:56:21.413Z,20.60
2023-03-06T22:58:49.017Z,22.23
2023-03-06T23:01:23.141Z,20.83
2023-03-06T23:03:53.926Z,19.07
2023-03-06T23:06:28.360Z,23.17
2023-03-06T23:08:59.891Z,23.40
2023-03-06T23:11:28.346Z,20.80
2023-03-06T23:14:15.162Z,19.23
2023-03-06T23:17:00.558Z,26.10
2023-03-06T23:19:49.070Z,19.57
2023-03-06T23:22:34.526Z,19.70
2023-03-06T23:25:19.993Z,21.60
2023-03-06T23:27:47.092Z,20.10
2023-03-06T23:30:14.519Z,20.83
2023-03-06T23:32:42.575Z,15.73
2023-03-06T23:35:10.817Z,19.47
2023-03-06T23:37:37.871Z,15.00
2023-03-06T23:40:07.982Z,19.80
2023-03-06T23:42:35.298Z,16.77
2023-03-06T23:45:02.723Z,21.70
2023-03-06T23:47:34.032Z,16.00
2023-03-06T23:50:01.173Z,16.40
2023-03-06T23:52:28.236Z,19.63
2023-03-06T23:54:55.311Z,23.43
2023-03-06T23:57:22.322Z,22.97
2023-03-06T23:59:49.406Z,23.53
